createdAt,value
2022-09-26T00:00:53.730Z,1076.5
2022-09-26T00:02:37.139Z,1077.1
2022-09-26T00:06:03.673Z,1070.2
2022-09-26T00:07:47.069Z,1067.8
2022-09-26T00:09:30.427Z,1066.4
2022-09-26T00:11:13.809Z,1064
2022-09-26T00:12:57.198Z,1063.3
2022-09-26T00:14:40.604Z,1064.2
2022-09-26T00:16:24.969Z,1063.4
2022-09-26T00:18:07.403Z,1060.2
2022-09-26T00:21:33.893Z,1061.6
2022-09-26T00:23:17.258Z,1061.4
2022-09-26T00:25:00.655Z,1061.2
2022-09-26T00:26:44.076Z,1062
2022-09-26T00:28:27.437Z,1061
2022-09-26T00:30:10.852Z,1056
2022-09-26T00:31:54.228Z,1054.7
2022-09-26T00:33:37.621Z,1052.1
2022-09-26T00:38:46.911Z,1048.1
2022-09-26T00:42:13.674Z,1045.2
2022-09-26T00:43:57.089Z,1043
2022-09-26T00:45:40.460Z,1044.5
2022-09-26T00:47:23.867Z,1043.4
2022-09-26T00:49:07.283Z,1041.5
2022-09-26T00:50:50.655Z,1039.6
2022-09-26T00:54:17.119Z,1035
2022-09-26T00:56:00.520Z,1033.3
2022-09-26T00:57:43.907Z,1036.2
2022-09-26T00:59:27.355Z,1035.7
2022-09-26T01:01:10.702Z,1036.3
2022-09-26T01:02:54.099Z,1035.4
2022-09-26T01:04:37.539Z,1033.1
2022-09-26T01:06:20.889Z,1031.4
2022-09-26T01:09:47.365Z,1027.3
2022-09-26T01:11:30.752Z,1026.8
2022-09-26T01:13:14.153Z,1026.5
2022-09-26T01:14:57.554Z,1025.1
2022-09-26T01:16:40.957Z,1026
2022-09-26T01:18:24.404Z,1026.8
2022-09-26T01:20:07.745Z,1025
2022-09-26T01:21:51.174Z,1024.4
2022-09-26T01:23:34.870Z,1018.5
2022-09-26T01:25:18.309Z,1014.6
2022-09-26T01:27:01.657Z,1015.6
2022-09-26T01:28:45.071Z,1011.5
2022-09-26T01:30:28.449Z,1004.3
2022-09-26T01:32:11.842Z,1003.1
2022-09-26T01:33:55.257Z,1005.2
2022-09-26T01:35:38.641Z,1005.7
2022-09-26T01:39:05.117Z,1005.7
2022-09-26T01:40:48.508Z,1009.6
2022-09-26T01:42:31.938Z,1008.6
2022-09-26T01:44:15.301Z,1010.8
2022-09-26T01:45:58.697Z,1013.7
2022-09-26T01:47:42.108Z,1012.4
2022-09-26T01:49:25.475Z,1011.5
2022-09-26T01:51:08.885Z,1012.4
2022-09-26T01:52:52.593Z,1013.7
2022-09-26T01:54:35.997Z,1011.6
2022-09-26T01:56:19.386Z,1011.7
2022-09-26T01:58:02.770Z,1011.6
2022-09-26T01:59:46.161Z,1008.4
2022-09-26T02:01:29.557Z,1009.8
2022-09-26T02:03:12.971Z,1012.4
2022-09-26T02:04:56.364Z,1011.1
2022-09-26T02:08:22.844Z,1005.4
2022-09-26T02:10:06.257Z,1005
2022-09-26T02:11:49.639Z,1001
2022-09-26T02:13:33.054Z,998.3
2022-09-26T02:15:16.419Z,996.8
2022-09-26T02:16:59.828Z,997.3
2022-09-26T02:18:43.225Z,994.1
2022-09-26T02:20:26.619Z,990.8
2022-09-26T02:23:53.082Z,990
2022-09-26T02:25:36.481Z,989.6
2022-09-26T02:27:19.905Z,988.5
2022-09-26T02:29:03.281Z,988.2
2022-09-26T02:30:46.688Z,987
2022-09-26T02:32:30.084Z,985.4
2022-09-26T02:34:13.464Z,987.7
2022-09-26T02:35:56.858Z,985.8
2022-09-26T02:39:23.368Z,985.8
2022-09-26T02:41:06.746Z,987.1
2022-09-26T02:42:50.121Z,984.4
2022-09-26T02:44:33.563Z,983.5
2022-09-26T02:46:16.912Z,987.5
2022-09-26T02:48:00.303Z,989.4
2022-09-26T02:49:43.715Z,988.3
2022-09-26T02:51:27.117Z,986.6
2022-09-26T02:54:53.587Z,980.7
2022-09-26T02:56:36.973Z,980.6
2022-09-26T02:58:20.373Z,981
2022-09-26T03:00:03.768Z,980
2022-09-26T03:01:47.175Z,979.8
2022-09-26T03:03:30.559Z,979.1
2022-09-26T03:05:13.957Z,979.6
2022-09-26T03:06:57.362Z,980.3
2022-09-26T03:08:41.059Z,979.5
2022-09-26T03:10:24.518Z,979.8
2022-09-26T03:12:07.875Z,979.3
2022-09-26T03:13:51.262Z,979.4
2022-09-26T03:15:34.644Z,977.6
2022-09-26T03:17:18.062Z,972.6
2022-09-26T03:19:01.448Z,970.1
2022-09-26T03:20:44.854Z,970.3
2022-09-26T03:24:11.317Z,968.3
2022-09-26T03:25:54.705Z,969.6
2022-09-26T03:27:38.099Z,968.6
2022-09-26T03:29:21.510Z,968.2
2022-09-26T03:31:04.887Z,968.4
2022-09-26T03:32:48.291Z,967.1
2022-09-26T03:34:31.711Z,967
2022-09-26T03:36:15.072Z,966
2022-09-26T03:39:41.553Z,965.6
2022-09-26T03:41:24.954Z,964.2
2022-09-26T03:43:08.343Z,959.6
2022-09-26T03:44:51.735Z,961.1
2022-09-26T03:46:35.137Z,961.3
2022-09-26T03:48:18.540Z,959
2022-09-26T03:50:01.965Z,956.8
2022-09-26T03:51:45.320Z,954.7
2022-09-26T03:55:11.827Z,951.9
2022-09-26T03:56:55.194Z,952.5
2022-09-26T03:58:38.576Z,952.5
2022-09-26T04:00:22.003Z,951.1
2022-09-26T04:02:05.383Z,952.4
2022-09-26T04:03:48.778Z,951.6
2022-09-26T04:05:32.173Z,951.7
2022-09-26T04:07:15.566Z,949.8
2022-09-26T04:08:59.290Z,948
2022-09-26T04:10:42.676Z,949.5
2022-09-26T04:12:26.068Z,951.3
2022-09-26T04:14:09.462Z,947
2022-09-26T04:15:52.888Z,943.8
2022-09-26T04:17:36.245Z,944.4
2022-09-26T04:19:19.684Z,942.4
2022-09-26T04:21:03.055Z,945.6
2022-09-26T04:22:46.449Z,947.3
2022-09-26T04:24:30.163Z,947.6
2022-09-26T04:26:13.543Z,942.5
2022-09-26T04:27:56.933Z,939.1
2022-09-26T04:29:40.349Z,938.7
2022-09-26T04:31:23.766Z,935.5
2022-09-26T04:33:07.131Z,931.8
2022-09-26T04:34:50.524Z,932.7
2022-09-26T04:36:33.920Z,934
2022-09-26T04:40:00.385Z,934.5
2022-09-26T04:41:43.776Z,934.2
2022-09-26T04:43:27.183Z,933.6
2022-09-26T04:45:10.582Z,932.7
2022-09-26T04:46:53.974Z,933.3
2022-09-26T04:48:37.393Z,933.1
2022-09-26T04:50:20.775Z,931.3
2022-09-26T04:52:04.167Z,928.1
2022-09-26T04:55:30.646Z,925.3
2022-09-26T04:57:14.027Z,922.4
2022-09-26T04:58:57.430Z,919.7
2022-09-26T05:00:40.859Z,919.3
2022-09-26T05:02:24.206Z,920.5
2022-09-26T05:04:07.693Z,917.7
2022-09-26T05:05:51.014Z,915.6
2022-09-26T05:07:34.438Z,912.7
2022-09-26T05:11:00.888Z,917.1
2022-09-26T05:12:44.331Z,918.6
2022-09-26T05:14:27.686Z,917
2022-09-26T05:16:11.085Z,916.4
2022-09-26T05:17:54.466Z,917.7
2022-09-26T05:19:37.854Z,917.2
2022-09-26T05:21:21.285Z,913.4
2022-09-26T05:23:04.654Z,911
2022-09-26T05:26:31.128Z,910.3
2022-09-26T05:28:14.519Z,912.2
2022-09-26T05:29:57.919Z,913.8
2022-09-26T05:31:41.319Z,914.2
2022-09-26T05:33:24.723Z,916.4
2022-09-26T05:35:08.119Z,917.1
2022-09-26T05:36:51.522Z,918.5
2022-09-26T05:38:34.941Z,919.2
2022-09-26T05:42:01.425Z,916.5
2022-09-26T05:43:44.767Z,917.4
2022-09-26T05:45:28.245Z,919.3
2022-09-26T05:47:11.564Z,918.3
2022-09-26T05:48:55.011Z,913.8
2022-09-26T05:50:38.411Z,912.7
2022-09-26T05:52:21.763Z,910.3
2022-09-26T05:54:05.145Z,905.4
2022-09-26T05:57:31.659Z,900.3
2022-09-26T05:59:15.031Z,902.7
2022-09-26T06:00:58.410Z,904.6
2022-09-26T06:02:41.812Z,907.4
2022-09-26T06:04:25.194Z,905.8
2022-09-26T06:06:08.593Z,904.4
2022-09-26T06:07:52.003Z,902.2
2022-09-26T06:09:35.427Z,901.4
2022-09-26T06:13:01.869Z,901.7
2022-09-26T06:14:45.270Z,903.2
2022-09-26T06:16:28.660Z,905.3
2022-09-26T06:18:12.070Z,907.7
2022-09-26T06:19:55.458Z,909.8
2022-09-26T06:21:38.927Z,912.3
2022-09-26T06:23:22.267Z,915.6
2022-09-26T06:25:05.645Z,916.5
2022-09-26T06:28:32.111Z,922.6
2022-09-26T06:30:15.504Z,922.3
2022-09-26T06:31:58.967Z,924.1
2022-09-26T06:33:42.307Z,925.8
2022-09-26T06:35:25.697Z,928.7
2022-09-26T06:37:09.103Z,927.5
2022-09-26T06:38:52.488Z,925.3
2022-09-26T06:40:35.893Z,925
2022-09-26T06:42:19.637Z,927.8
2022-09-26T06:44:02.994Z,926.3
2022-09-26T06:45:46.380Z,928
2022-09-26T06:47:29.781Z,927.3
2022-09-26T06:49:13.169Z,927.6
2022-09-26T06:50:56.618Z,926.8
2022-09-26T06:52:40.028Z,924.1
2022-09-26T06:54:23.428Z,924.5
2022-09-26T06:56:07.159Z,931.2
2022-09-26T06:57:50.472Z,940.8
2022-09-26T06:59:33.943Z,952.5
2022-09-26T07:01:17.323Z,958.7
2022-09-26T07:03:00.664Z,960.5
2022-09-26T07:04:44.072Z,955.8
2022-09-26T07:06:27.478Z,960.3
2022-09-26T07:08:10.894Z,970.2
2022-09-26T07:09:54.542Z,972.6
2022-09-26T07:11:37.950Z,974.8
2022-09-26T07:13:21.362Z,981
2022-09-26T07:15:04.735Z,986.8
2022-09-26T07:16:48.138Z,988.5
2022-09-26T07:18:31.524Z,988.3
2022-09-26T07:20:14.949Z,984.3
2022-09-26T07:21:58.583Z,988.2
2022-09-26T07:25:24.789Z,1011.1
2022-09-26T07:27:08.185Z,1021.4
2022-09-26T07:28:51.592Z,1024
2022-09-26T07:30:35.106Z,1025
2022-09-26T07:32:18.410Z,1022.2
2022-09-26T07:34:01.771Z,1020.6
2022-09-26T07:35:45.250Z,1020.8
2022-09-26T07:40:54.415Z,1019.1
2022-09-26T07:42:37.797Z,1019.1
2022-09-26T07:44:21.221Z,1020.3
2022-09-26T07:46:04.599Z,1022.6
2022-09-26T07:47:47.992Z,1023.6
2022-09-26T07:49:31.474Z,1023.5
2022-09-26T07:51:14.779Z,1020.4
2022-09-26T07:56:24.018Z,1019.2
2022-09-26T07:58:07.426Z,1015.4
2022-09-26T07:59:50.837Z,1013.6
2022-09-26T08:01:34.220Z,1011.4
2022-09-26T08:03:17.642Z,1011.7
2022-09-26T08:05:01.045Z,1011
2022-09-26T08:06:44.404Z,1013.2
2022-09-26T08:11:53.650Z,1000.1
2022-09-26T08:13:37.032Z,996.6
2022-09-26T08:15:20.456Z,994.2
2022-09-26T08:17:03.838Z,993.4
2022-09-26T08:18:47.350Z,989.3
2022-09-26T08:20:30.616Z,989.4
2022-09-26T08:22:14.057Z,986
2022-09-26T08:23:57.444Z,983.2
2022-09-26T08:25:41.124Z,981.8
2022-09-26T08:27:24.542Z,979.7
2022-09-26T08:29:07.906Z,979.7
2022-09-26T08:30:51.335Z,975.6
2022-09-26T08:32:34.751Z,969.5
2022-09-26T08:34:18.106Z,967.3
2022-09-26T08:36:01.495Z,965.3
2022-09-26T08:37:44.892Z,964.1
2022-09-26T08:41:11.370Z,954.3
2022-09-26T08:42:54.753Z,953.2
2022-09-26T08:44:38.165Z,952.7
2022-09-26T08:46:21.548Z,951.1
2022-09-26T08:48:04.956Z,950
2022-09-26T08:49:48.330Z,946.3
2022-09-26T08:56:40.972Z,928.4
2022-09-26T08:58:24.373Z,925
2022-09-26T09:00:07.778Z,925.4
2022-09-26T09:01:51.163Z,921.7
2022-09-26T09:03:34.569Z,921.4
2022-09-26T09:05:18.022Z,916.8
2022-09-26T09:07:01.358Z,913
2022-09-26T09:08:44.790Z,911.4
2022-09-26T09:10:28.471Z,905
2022-09-26T09:12:11.939Z,899.7
2022-09-26T09:13:55.321Z,894.3
2022-09-26T09:15:38.641Z,890
2022-09-26T09:17:22.152Z,889.1
2022-09-26T09:19:05.429Z,885.4
2022-09-26T09:20:48.872Z,887.3
2022-09-26T09:22:32.305Z,885.7
2022-09-26T09:24:15.938Z,884.6
2022-09-26T09:25:59.414Z,881
2022-09-26T09:27:42.719Z,879.4
2022-09-26T09:29:26.130Z,877.7
2022-09-26T09:31:09.518Z,877
2022-09-26T09:32:52.906Z,883
2022-09-26T09:34:36.346Z,885.1
2022-09-26T09:36:19.702Z,883.3
2022-09-26T09:39:46.160Z,881
2022-09-26T09:41:29.586Z,879.8
2022-09-26T09:43:12.971Z,884.3
2022-09-26T09:44:56.362Z,888.7
2022-09-26T09:46:39.757Z,891.6
2022-09-26T09:48:23.167Z,891
2022-09-26T09:50:06.553Z,892
2022-09-26T09:51:49.938Z,889.1
2022-09-26T09:55:16.442Z,887.2
2022-09-26T09:56:59.812Z,886.5
2022-09-26T09:58:43.219Z,879.5
2022-09-26T10:00:26.605Z,878.7
2022-09-26T10:02:10.006Z,881.5
2022-09-26T10:03:53.406Z,884
2022-09-26T10:05:36.787Z,882
2022-09-26T10:07:20.187Z,880.5
2022-09-26T10:10:46.658Z,887.5
2022-09-26T10:12:30.048Z,904.2
2022-09-26T10:14:13.460Z,896.2
2022-09-26T10:15:56.844Z,891.6
2022-09-26T10:17:40.257Z,895.5
2022-09-26T10:19:23.666Z,896.1
2022-09-26T10:21:07.032Z,903.5
2022-09-26T10:26:16.294Z,943.5
2022-09-26T10:27:59.678Z,942
2022-09-26T10:29:43.071Z,937.1
2022-09-26T10:31:26.463Z,934.7
2022-09-26T10:33:09.865Z,926.5
2022-09-26T10:34:53.263Z,925.8
2022-09-26T10:36:36.667Z,923.3
2022-09-26T10:40:03.125Z,921.3
2022-09-26T10:41:46.517Z,920.6
2022-09-26T10:43:29.947Z,923.5
2022-09-26T10:45:13.336Z,924.5
2022-09-26T10:46:56.712Z,921.8
2022-09-26T10:48:40.101Z,919
2022-09-26T10:50:23.496Z,918.6
2022-09-26T10:52:06.935Z,918.1
2022-09-26T10:55:33.373Z,913.2
2022-09-26T10:57:16.765Z,911
2022-09-26T10:59:00.160Z,911.8
2022-09-26T11:00:43.565Z,913.1
2022-09-26T11:02:26.967Z,914.8
2022-09-26T11:04:10.352Z,918.7
2022-09-26T11:05:53.752Z,925.3
2022-09-26T11:07:37.150Z,928.8
2022-09-26T11:11:03.655Z,940.7
2022-09-26T11:12:47.013Z,940.3
2022-09-26T11:14:30.414Z,939
2022-09-26T11:16:13.825Z,942.7
2022-09-26T11:17:57.219Z,944
2022-09-26T11:19:40.592Z,943.6
2022-09-26T11:21:23.986Z,943.3
2022-09-26T11:23:07.394Z,941.6
2022-09-26T11:28:16.640Z,943.3
2022-09-26T11:30:00.024Z,951.2
2022-09-26T11:31:43.412Z,954.4
2022-09-26T11:33:26.831Z,956.8
2022-09-26T11:35:10.217Z,956.3
2022-09-26T11:36:53.615Z,953.3
2022-09-26T11:38:37.018Z,952.6
2022-09-26T11:40:20.401Z,954.3
2022-09-26T11:43:46.907Z,956.7
2022-09-26T11:45:30.269Z,959.3
2022-09-26T11:47:13.678Z,958.6
2022-09-26T11:48:57.059Z,959.8
2022-09-26T11:50:40.457Z,959.5
2022-09-26T11:52:23.853Z,965.8
2022-09-26T11:54:07.274Z,967.4
2022-09-26T11:55:50.645Z,968
2022-09-26T11:57:34.359Z,966.3
2022-09-26T11:59:17.741Z,960.6
2022-09-26T12:01:01.213Z,960.1
2022-09-26T12:02:44.546Z,964.5
2022-09-26T12:04:27.962Z,976.6
2022-09-26T12:06:11.341Z,987.4
2022-09-26T12:07:54.829Z,993.6
2022-09-26T12:09:38.120Z,998.1
2022-09-26T12:13:04.594Z,1061.2
2022-09-26T12:14:47.997Z,1061.4
2022-09-26T12:16:31.396Z,1058.4
2022-09-26T12:18:14.827Z,1042.8
2022-09-26T12:19:58.168Z,1031.7
2022-09-26T12:21:41.580Z,1024.4
2022-09-26T12:23:24.999Z,1025.2
2022-09-26T12:25:08.363Z,1064.6
2022-09-26T12:28:34.874Z,1060.2
2022-09-26T12:30:18.270Z,1060.4
2022-09-26T12:32:01.634Z,1064.8
2022-09-26T12:33:45.055Z,1066.1
2022-09-26T12:35:28.464Z,1069.5
2022-09-26T12:37:11.863Z,1072.3
2022-09-26T12:38:55.210Z,1075.6
2022-09-26T12:40:38.621Z,1082.5
2022-09-26T12:44:05.104Z,1092.9
2022-09-26T12:45:48.483Z,1102
2022-09-26T12:47:31.893Z,1104.6
2022-09-26T12:49:15.282Z,1106
2022-09-26T12:50:58.699Z,1109.1
2022-09-26T12:52:42.077Z,1113.5
2022-09-26T12:54:25.460Z,1117.7
2022-09-26T12:56:08.867Z,1124
2022-09-26T12:59:35.349Z,1128.7
2022-09-26T13:01:18.742Z,1125.4
2022-09-26T13:03:02.121Z,1124.6
2022-09-26T13:04:45.535Z,1123.2
2022-09-26T13:06:28.933Z,1123.7
2022-09-26T13:08:12.306Z,1123.3
2022-09-26T13:09:55.722Z,1121.8
2022-09-26T13:15:04.950Z,1119.5
2022-09-26T13:16:48.337Z,1118.2
2022-09-26T13:18:31.738Z,1118.3
2022-09-26T13:20:15.137Z,1120.8
2022-09-26T13:21:58.542Z,1124.7
2022-09-26T13:23:41.929Z,1123.1
2022-09-26T13:25:25.362Z,1125.1
2022-09-26T13:27:08.754Z,1125.2
2022-09-26T13:28:52.445Z,1119.8
2022-09-26T13:30:35.843Z,1113.8
2022-09-26T13:32:19.211Z,1108.7
2022-09-26T13:34:02.618Z,1105.2
2022-09-26T13:35:46.031Z,1103.2
2022-09-26T13:37:29.422Z,1100.5
2022-09-26T13:39:12.818Z,1101.2
2022-09-26T13:40:56.200Z,1102.4
2022-09-26T13:44:22.680Z,1091.7
2022-09-26T13:46:06.063Z,1092.7
2022-09-26T13:47:49.473Z,1097.2
2022-09-26T13:49:32.858Z,1097.7
2022-09-26T13:51:16.280Z,1099.8
2022-09-26T13:52:59.674Z,1101.4
2022-09-26T13:54:43.067Z,1098.2
2022-09-26T13:59:52.295Z,1075
2022-09-26T14:01:35.693Z,1070.3
2022-09-26T14:03:19.098Z,1065.4
2022-09-26T14:05:02.498Z,1065.4
2022-09-26T14:06:45.911Z,1061.2
2022-09-26T14:08:29.289Z,1055.1
2022-09-26T14:10:12.693Z,1052.7
2022-09-26T14:15:22.000Z,1063.8
2022-09-26T14:17:05.384Z,1066
2022-09-26T14:18:48.717Z,1067.3
2022-09-26T14:20:32.139Z,1066.3
2022-09-26T14:22:15.678Z,1060
2022-09-26T14:23:59.066Z,1057.5
2022-09-26T14:25:42.439Z,1062.8
2022-09-26T14:29:08.812Z,1070.3
2022-09-26T14:30:52.156Z,1071.1
2022-09-26T14:32:35.561Z,1066.7
2022-09-26T14:34:19.001Z,1064.7
2022-09-26T14:36:02.366Z,1058.5
2022-09-26T14:37:45.741Z,1057.1
2022-09-26T14:39:29.176Z,1055.3
2022-09-26T14:41:12.527Z,1055.6
2022-09-26T14:42:56.256Z,1062.6
2022-09-26T14:44:39.633Z,1071.4
2022-09-26T14:46:23.074Z,1080
2022-09-26T14:48:06.433Z,1081.5
2022-09-26T14:49:49.821Z,1082.5
2022-09-26T14:51:33.210Z,1086.6
2022-09-26T14:53:16.635Z,1092.1
2022-09-26T14:55:00.013Z,1093.6
2022-09-26T14:56:43.734Z,1088.5
2022-09-26T14:58:27.123Z,1082.6
2022-09-26T15:00:10.513Z,1077.1
2022-09-26T15:01:53.906Z,1077.4
2022-09-26T15:03:37.311Z,1076.7
2022-09-26T15:05:20.767Z,1072.8
2022-09-26T15:07:04.085Z,1073.6
2022-09-26T15:08:47.486Z,1068.4
2022-09-26T15:12:13.985Z,1060.9
2022-09-26T15:13:57.392Z,1058.5
2022-09-26T15:15:40.746Z,1061
2022-09-26T15:17:24.137Z,1057.6
2022-09-26T15:19:07.534Z,1055.3
2022-09-26T15:20:50.936Z,1051.1
2022-09-26T15:22:34.349Z,1058.2
2022-09-26T15:24:17.733Z,1064.6
2022-09-26T15:26:01.442Z,1072.9
2022-09-26T15:27:44.837Z,1078
2022-09-26T15:29:28.296Z,1088.7
2022-09-26T15:31:11.611Z,1097.1
2022-09-26T15:32:55.012Z,1098.1
2022-09-26T15:34:38.420Z,1108.6
2022-09-26T15:36:21.837Z,1114.5
2022-09-26T15:38:05.211Z,1113.7
2022-09-26T15:41:31.733Z,1103.8
2022-09-26T15:43:15.092Z,1103.1
2022-09-26T15:44:58.463Z,1105.6
2022-09-26T15:46:41.871Z,1104.2
2022-09-26T15:48:25.280Z,1109.4
2022-09-26T15:50:08.661Z,1116.3
2022-09-26T15:51:52.046Z,1124.4
2022-09-26T15:55:18.536Z,1134.8
2022-09-26T15:57:01.937Z,1154.8
2022-09-26T15:58:45.326Z,1166.6
2022-09-26T16:00:28.712Z,1172.8
2022-09-26T16:02:12.108Z,1176.1
2022-09-26T16:03:55.567Z,1177
2022-09-26T16:05:38.949Z,1178.1
2022-09-26T16:07:22.302Z,1180.3
2022-09-26T16:09:06.003Z,1184.6
2022-09-26T16:10:49.409Z,1193.6
2022-09-26T16:12:32.800Z,1200.8
2022-09-26T16:14:16.189Z,1205.7
2022-09-26T16:15:59.606Z,1205.7
2022-09-26T16:17:43.002Z,1212.4
2022-09-26T16:19:26.389Z,1210.1
2022-09-26T16:24:35.628Z,1213.6
2022-09-26T16:26:19.049Z,1215.6
2022-09-26T16:28:02.402Z,1215.7
2022-09-26T16:29:45.808Z,1214
2022-09-26T16:31:29.211Z,1210
2022-09-26T16:33:12.594Z,1215.4
2022-09-26T16:34:56.021Z,1222
2022-09-26T16:40:05.253Z,1230.4
2022-09-26T16:41:48.641Z,1233.1
2022-09-26T16:43:32.024Z,1228.6
2022-09-26T16:45:15.436Z,1222.6
2022-09-26T16:46:58.830Z,1217.8
2022-09-26T16:48:42.262Z,1216.6
2022-09-26T16:50:25.624Z,1221.2
2022-09-26T16:53:52.104Z,1226.3
2022-09-26T16:55:35.487Z,1232.2
2022-09-26T16:57:18.884Z,1234.1
2022-09-26T17:00:45.696Z,1236
2022-09-26T17:02:29.087Z,1234.1
2022-09-26T17:04:12.466Z,1233.2
2022-09-26T17:05:55.897Z,1236.2
2022-09-26T17:07:39.629Z,1240.5
2022-09-26T17:09:22.971Z,1242.3
2022-09-26T17:11:06.365Z,1243.2
2022-09-26T17:12:49.762Z,1244.7
2022-09-26T17:14:33.206Z,1247.1
2022-09-26T17:16:16.554Z,1249.8
2022-09-26T17:17:59.939Z,1256
2022-09-26T17:21:26.424Z,1263.9
2022-09-26T17:23:09.881Z,1268.4
2022-09-26T17:24:53.206Z,1270.5
2022-09-26T17:26:36.606Z,1272.5
2022-09-26T17:28:20.003Z,1274.3
2022-09-26T17:30:03.397Z,1276.8
2022-09-26T17:31:46.895Z,1275.1
2022-09-26T17:36:56.031Z,1272.5
2022-09-26T17:38:39.482Z,1269.3
2022-09-26T17:40:22.826Z,1264.7
2022-09-26T17:42:06.226Z,1260.5
2022-09-26T17:43:49.614Z,1259.1
2022-09-26T17:45:33.059Z,1260.2
2022-09-26T17:47:16.407Z,1262.4
2022-09-26T17:52:25.651Z,1264.4
2022-09-26T17:54:09.057Z,1263
2022-09-26T17:55:52.431Z,1264.5
2022-09-26T17:57:35.834Z,1265
2022-09-26T17:59:19.228Z,1268.3
2022-09-26T18:01:02.639Z,1275.2
2022-09-26T18:02:46.044Z,1283.2
2022-09-26T18:06:12.534Z,1286.7
2022-09-26T18:07:55.936Z,1290.4
2022-09-26T18:09:39.293Z,1292.6
2022-09-26T18:11:22.703Z,1294.3
2022-09-26T18:13:06.085Z,1295.2
2022-09-26T18:14:49.478Z,1299.7
2022-09-26T18:16:32.878Z,1297.4
2022-09-26T18:18:16.275Z,1295
2022-09-26T18:19:59.997Z,1294.2
2022-09-26T18:21:43.369Z,1298.4
2022-09-26T18:23:26.803Z,1300.4
2022-09-26T18:25:10.177Z,1298.5
2022-09-26T18:26:53.565Z,1300.5
2022-09-26T18:28:36.950Z,1301.8
2022-09-26T18:30:20.394Z,1304.2
2022-09-26T18:32:03.755Z,1304.5
2022-09-26T18:35:30.258Z,1302.9
2022-09-26T18:37:13.635Z,1310.5
2022-09-26T18:38:57.021Z,1314.7
2022-09-26T18:40:40.434Z,1316.4
2022-09-26T18:42:23.863Z,1315
2022-09-26T18:44:07.218Z,1314.5
2022-09-26T18:45:50.600Z,1319.7
2022-09-26T18:49:17.144Z,1332.9
2022-09-26T18:51:00.521Z,1323.5
2022-09-26T18:52:43.869Z,1305.6
2022-09-26T18:54:27.275Z,1270.4
2022-09-26T18:56:10.670Z,1259.5
2022-09-26T18:57:54.096Z,1255.6
2022-09-26T18:59:37.440Z,1248.1
2022-09-26T19:01:20.944Z,1244.6
2022-09-26T19:04:47.355Z,1244.1
2022-09-26T19:06:30.720Z,1243.3
2022-09-26T19:08:14.167Z,1245.7
2022-09-26T19:09:57.549Z,1255.1
2022-09-26T19:11:40.940Z,1266.6
2022-09-26T19:13:24.306Z,1273.5
2022-09-26T19:15:07.739Z,1277.6
2022-09-26T19:18:34.174Z,1282.4
2022-09-26T19:20:17.579Z,1276.3
2022-09-26T19:22:01.112Z,1271.8
2022-09-26T19:23:44.516Z,1264.6
2022-09-26T19:25:27.918Z,1255.2
2022-09-26T19:27:11.137Z,1251.8
2022-09-26T19:28:54.649Z,1251
2022-09-26T19:30:38.058Z,1253
2022-09-26T19:32:21.638Z,1251.4
2022-09-26T19:34:05.037Z,1249
2022-09-26T19:35:48.547Z,1248.4
2022-09-26T19:37:31.876Z,1244
2022-09-26T19:39:15.238Z,1239.4
2022-09-26T19:40:58.636Z,1237.3
2022-09-26T19:42:42.057Z,1237.1
2022-09-26T19:44:25.521Z,1233.2
2022-09-26T19:46:09.135Z,1231.3
2022-09-26T19:47:52.526Z,1227.5
2022-09-26T19:49:35.909Z,1223.5
2022-09-26T19:51:19.326Z,1219.6
2022-09-26T19:53:02.795Z,1215.4
2022-09-26T19:54:46.141Z,1210.3
2022-09-26T19:56:29.555Z,1209.5
2022-09-26T19:58:12.915Z,1208.3
2022-09-26T20:01:39.378Z,1202.4
2022-09-26T20:03:22.801Z,1198.7
2022-09-26T20:05:06.164Z,1193.7
2022-09-26T20:06:49.542Z,1192.5
2022-09-26T20:08:32.982Z,1198.6
2022-09-26T20:10:16.338Z,1201.7
2022-09-26T20:11:59.750Z,1200.7
2022-09-26T20:15:26.204Z,1196.8
2022-09-26T20:17:09.620Z,1197.6
2022-09-26T20:18:53.007Z,1196
2022-09-26T20:20:36.424Z,1194.8
2022-09-26T20:22:19.792Z,1193.4
2022-09-26T20:24:03.280Z,1193.1
2022-09-26T20:25:46.647Z,1189.7
2022-09-26T20:27:30.011Z,1186.5
2022-09-26T20:30:56.460Z,1178.3
2022-09-26T20:32:39.879Z,1174.6
2022-09-26T20:34:23.332Z,1169.6
2022-09-26T20:36:06.687Z,1167.3
2022-09-26T20:37:50.041Z,1168.2
2022-09-26T20:39:33.429Z,1168.1
2022-09-26T20:41:16.886Z,1164.6
2022-09-26T20:46:26.090Z,1149.2
2022-09-26T20:48:09.557Z,1145.3
2022-09-26T20:49:52.862Z,1143.1
2022-09-26T20:51:36.273Z,1141.4
2022-09-26T20:53:19.672Z,1136.8
2022-09-26T20:55:03.051Z,1133.6
2022-09-26T20:56:46.442Z,1131.6
2022-09-26T21:01:55.685Z,1130.1
2022-09-26T21:03:39.087Z,1129.5
2022-09-26T21:05:22.487Z,1127.3
2022-09-26T21:07:05.887Z,1126.1
2022-09-26T21:08:49.282Z,1124.2
2022-09-26T21:10:32.668Z,1123
2022-09-26T21:12:16.075Z,1121
2022-09-26T21:13:59.466Z,1121
2022-09-26T21:17:25.945Z,1116.4
2022-09-26T21:19:09.346Z,1115.3
2022-09-26T21:20:52.732Z,1110.7
2022-09-26T21:22:36.134Z,1110.8
2022-09-26T21:24:19.527Z,1110.2
2022-09-26T21:26:02.922Z,1109.6
2022-09-26T21:27:46.314Z,1109.3
2022-09-26T21:29:29.703Z,1110.4
2022-09-26T21:32:56.200Z,1110.3
2022-09-26T21:34:39.580Z,1111.6
2022-09-26T21:36:22.978Z,1109.6
2022-09-26T21:38:06.356Z,1105.8
2022-09-26T21:39:49.771Z,1103.1
2022-09-26T21:41:33.170Z,1103.7
2022-09-26T21:43:16.560Z,1106
2022-09-26T21:44:59.960Z,1106.2
2022-09-26T21:50:09.205Z,1104.4
2022-09-26T21:51:52.617Z,1107.4
2022-09-26T21:53:35.995Z,1108
2022-09-26T21:55:19.380Z,1105.6
2022-09-26T21:57:02.791Z,1102.1
2022-09-26T21:58:46.178Z,1098.3
2022-09-26T22:00:29.564Z,1099.5
2022-09-26T22:02:12.958Z,1100.5
2022-09-26T22:03:56.676Z,1097.8
2022-09-26T22:05:40.070Z,1093
2022-09-26T22:07:23.504Z,1092.2
2022-09-26T22:09:06.904Z,1089.4
2022-09-26T22:10:50.255Z,1085.6
2022-09-26T22:12:33.660Z,1085
2022-09-26T22:14:17.069Z,1083.2
2022-09-26T22:16:00.441Z,1082.4
2022-09-26T22:19:26.943Z,1081.9
2022-09-26T22:21:10.318Z,1073.8
2022-09-26T22:22:53.707Z,1074.7
2022-09-26T22:24:37.132Z,1070.6
2022-09-26T22:26:20.499Z,1067.3
2022-09-26T22:28:03.889Z,1064.8
2022-09-26T22:29:47.396Z,1065.2
2022-09-26T22:31:30.688Z,1061.4
2022-09-26T22:34:57.178Z,1056.2
2022-09-26T22:36:40.568Z,1056.7
2022-09-26T22:38:23.971Z,1057.4
2022-09-26T22:40:07.355Z,1063
2022-09-26T22:41:50.754Z,1064.5
2022-09-26T22:43:34.163Z,1060.6
2022-09-26T22:45:17.542Z,1061.7
2022-09-26T22:47:00.931Z,1066.4
2022-09-26T22:52:10.182Z,1068.2
2022-09-26T22:53:53.565Z,1066.7
2022-09-26T22:55:36.960Z,1063.6
2022-09-26T22:57:20.419Z,1060.1
2022-09-26T22:59:03.763Z,1058.7
2022-09-26T23:00:47.200Z,1057
2022-09-26T23:02:30.563Z,1053.4
2022-09-26T23:04:13.972Z,1052.8
2022-09-26T23:07:40.419Z,1052.3
2022-09-26T23:09:23.826Z,1049.4
2022-09-26T23:11:07.215Z,1048.5
2022-09-26T23:12:50.609Z,1048.7
2022-09-26T23:14:34.010Z,1047.4
2022-09-26T23:16:17.399Z,1047.4
2022-09-26T23:18:00.796Z,1043
2022-09-26T23:19:44.204Z,1045
2022-09-26T23:23:10.683Z,1043.8
2022-09-26T23:24:54.071Z,1041.7
2022-09-26T23:26:37.448Z,1037.8
2022-09-26T23:28:20.846Z,1031.3
2022-09-26T23:30:04.247Z,1027.4
2022-09-26T23:31:47.654Z,1029.3
2022-09-26T23:33:31.048Z,1029.7
2022-09-26T23:38:40.288Z,1029.1
2022-09-26T23:40:23.678Z,1027.2
2022-09-26T23:42:07.080Z,1021.4
2022-09-26T23:43:50.482Z,1019.6
2022-09-26T23:45:33.868Z,1016.1
2022-09-26T23:47:17.273Z,1018
2022-09-26T23:49:00.664Z,1017.3
2022-09-26T23:54:09.903Z,1019.8
2022-09-26T23:55:53.293Z,1021.7
2022-09-26T23:57:36.684Z,1023.6
2022-09-26T23:59:20.085Z,1021.1
